sensor_id;sensor_type;location;lat;lon;timestamp;temperature;humidity
53208;DHT22;39093;52.788;6.940;2023-03-12T00:00:06;0.60;99.90
53208;DHT22;39093;52.788;6.940;2023-03-12T00:02:37;0.60;99.90
53208;DHT22;39093;52.788;6.940;2023-03-12T00:05:04;0.60;99.90
53208;DHT22;39093;52.788;6.940;2023-03-12T00:07:31;0.60;99.90
53208;DHT22;39093;52.788;6.940;2023-03-12T00:09:58;0.60;99.90
53208;DHT22;39093;52.788;6.940;2023-03-12T00:12:25;0.60;99.90
53208;DHT22;39093;52.788;6.940;2023-03-12T00:14:52;0.60;99.90
53208;DHT22;39093;52.788;6.940;2023-03-12T00:17:19;0.60;99.90
53208;DHT22;39093;52.788;6.940;2023-03-12T00:19:45;0.60;99.90
53208;DHT22;39093;52.788;6.940;2023-03-12T00:22:16;0.60;99.90
53208;DHT22;39093;52.788;6.940;2023-03-12T00:24:43;0.60;99.90
53208;DHT22;39093;52.788;6.940;2023-03-12T00:27:10;0.60;99.90
53208;DHT22;39093;52.788;6.940;2023-03-12T00:29:37;0.60;99.90
53208;DHT22;39093;52.788;6.940;2023-03-12T00:32:04;0.50;99.90
53208;DHT22;39093;52.788;6.940;2023-03-12T00:34:31;0.60;99.90
53208;DHT22;39093;52.788;6.940;2023-03-12T00:36:58;0.50;99.90
53208;DHT22;39093;52.788;6.940;2023-03-12T00:39:24;0.50;99.90
53208;DHT22;39093;52.788;6.940;2023-03-12T00:41:51;0.50;99.90
53208;DHT22;39093;52.788;6.940;2023-03-12T00:44:18;0.50;99.90
53208;DHT22;39093;52.788;6.940;2023-03-12T00:46:46;0.60;99.90
53208;DHT22;39093;52.788;6.940;2023-03-12T00:49:12;0.50;99.90
53208;DHT22;39093;52.788;6.940;2023-03-12T00:51:39;0.40;99.90
53208;DHT22;39093;52.788;6.940;2023-03-12T00:54:06;0.50;99.90
53208;DHT22;39093;52.788;6.940;2023-03-12T00:56:33;0.50;99.90
53208;DHT22;39093;52.788;6.940;2023-03-12T00:59:00;0.50;99.90
53208;DHT22;39093;52.788;6.940;2023-03-12T01:01:27;0.40;99.90
53208;DHT22;39093;52.788;6.940;2023-03-12T01:03:54;0.40;99.90
53208;DHT22;39093;52.788;6.940;2023-03-12T01:06:21;0.40;99.90
53208;DHT22;39093;52.788;6.940;2023-03-12T01:08:48;0.30;99.90
53208;DHT22;39093;52.788;6.940;2023-03-12T01:11:20;0.30;99.90
53208;DHT22;39093;52.788;6.940;2023-03-12T01:13:47;0.30;99.90
53208;DHT22;39093;52.788;6.940;2023-03-12T01:16:14;0.30;99.90
53208;DHT22;39093;52.788;6.940;2023-03-12T01:18:41;0.30;99.90
53208;DHT22;39093;52.788;6.940;2023-03-12T01:21:08;0.30;99.90
53208;DHT22;39093;52.788;6.940;2023-03-12T01:23:37;0.30;99.90
53208;DHT22;39093;52.788;6.940;2023-03-12T01:26:04;0.30;99.90
53208;DHT22;39093;52.788;6.940;2023-03-12T01:28:30;0.30;99.90
53208;DHT22;39093;52.788;6.940;2023-03-12T01:30:57;0.30;99.90
53208;DHT22;39093;52.788;6.940;2023-03-12T01:33:24;0.60;99.90
53208;DHT22;39093;52.788;6.940;2023-03-12T01:35:51;0.30;99.90
53208;DHT22;39093;52.788;6.940;2023-03-12T01:38:18;0.30;99.90
53208;DHT22;39093;52.788;6.940;2023-03-12T01:40:46;0.30;99.90
53208;DHT22;39093;52.788;6.940;2023-03-12T01:43:32;0.30;99.90
53208;DHT22;39093;52.788;6.940;2023-03-12T01:46:06;0.20;99.90
53208;DHT22;39093;52.788;6.940;2023-03-12T01:48:43;0.30;99.90
53208;DHT22;39093;52.788;6.940;2023-03-12T01:51:13;0.30;99.90
53208;DHT22;39093;52.788;6.940;2023-03-12T01:53:43;0.30;99.90
53208;DHT22;39093;52.788;6.940;2023-03-12T01:56:11;0.30;99.90
53208;DHT22;39093;52.788;6.940;2023-03-12T01:58:42;0.30;99.90
53208;DHT22;39093;52.788;6.940;2023-03-12T02:01:11;0.30;99.90
53208;DHT22;39093;52.788;6.940;2023-03-12T02:03:40;0.40;99.90
53208;DHT22;39093;52.788;6.940;2023-03-12T02:06:12;0.30;99.90
53208;DHT22;39093;52.788;6.940;2023-03-12T02:08:43;0.40;99.90
53208;DHT22;39093;52.788;6.940;2023-03-12T02:11:10;0.40;99.90
53208;DHT22;39093;52.788;6.940;2023-03-12T02:13:38;0.40;99.90
53208;DHT22;39093;52.788;6.940;2023-03-12T02:16:05;0.40;99.90
53208;DHT22;39093;52.788;6.940;2023-03-12T02:18:33;0.40;99.90
53208;DHT22;39093;52.788;6.940;2023-03-12T02:21:17;0.40;99.90
53208;DHT22;39093;52.788;6.940;2023-03-12T02:26:50;0.50;99.90
53208;DHT22;39093;52.788;6.940;2023-03-12T02:29:18;0.60;99.90
53208;DHT22;39093;52.788;6.940;2023-03-12T02:31:51;0.50;99.90
53208;DHT22;39093;52.788;6.940;2023-03-12T02:34:20;0.40;99.90
53208;DHT22;39093;52.788;6.940;2023-03-12T02:36:48;0.50;99.90
53208;DHT22;39093;52.788;6.940;2023-03-12T02:39:15;0.50;99.90
53208;DHT22;39093;52.788;6.940;2023-03-12T02:41:45;0.50;99.90
53208;DHT22;39093;52.788;6.940;2023-03-12T02:44:20;0.50;99.90
53208;DHT22;39093;52.788;6.940;2023-03-12T02:46:51;0.50;99.90
53208;DHT22;39093;52.788;6.940;2023-03-12T02:49:19;0.60;99.90
53208;DHT22;39093;52.788;6.940;2023-03-12T02:51:49;0.60;99.90
53208;DHT22;39093;52.788;6.940;2023-03-12T02:54:17;0.60;99.90
53208;DHT22;39093;52.788;6.940;2023-03-12T02:56:45;0.60;99.90
53208;DHT22;39093;52.788;6.940;2023-03-12T02:59:13;0.60;99.90
53208;DHT22;39093;52.788;6.940;2023-03-12T03:01:42;0.60;99.90
53208;DHT22;39093;52.788;6.940;2023-03-12T03:04:10;0.60;99.90
53208;DHT22;39093;52.788;6.940;2023-03-12T03:06:42;0.60;99.90
53208;DHT22;39093;52.788;6.940;2023-03-12T03:09:09;0.60;99.90
53208;DHT22;39093;52.788;6.940;2023-03-12T03:11:36;0.60;99.90
53208;DHT22;39093;52.788;6.940;2023-03-12T03:14:03;0.70;99.90
53208;DHT22;39093;52.788;6.940;2023-03-12T03:16:33;0.70;99.90
53208;DHT22;39093;52.788;6.940;2023-03-12T03:19:00;0.70;99.90
53208;DHT22;39093;52.788;6.940;2023-03-12T03:21:27;0.70;99.90
53208;DHT22;39093;52.788;6.940;2023-03-12T03:23:54;0.70;99.90
53208;DHT22;39093;52.788;6.940;2023-03-12T03:26:22;0.70;99.90
53208;DHT22;39093;52.788;6.940;2023-03-12T03:28:50;0.70;99.90
53208;DHT22;39093;52.788;6.940;2023-03-12T03:31:17;0.70;99.90
53208;DHT22;39093;52.788;6.940;2023-03-12T03:33:44;0.70;99.90
53208;DHT22;39093;52.788;6.940;2023-03-12T03:36:12;0.70;99.90
53208;DHT22;39093;52.788;6.940;2023-03-12T03:38:41;0.80;99.90
53208;DHT22;39093;52.788;6.940;2023-03-12T03:41:09;0.70;99.90
53208;DHT22;39093;52.788;6.940;2023-03-12T03:43:36;0.70;99.90
53208;DHT22;39093;52.788;6.940;2023-03-12T03:46:04;0.80;99.90
53208;DHT22;39093;52.788;6.940;2023-03-12T03:48:31;0.80;99.90
53208;DHT22;39093;52.788;6.940;2023-03-12T03:50:59;0.80;99.90
53208;DHT22;39093;52.788;6.940;2023-03-12T03:53:27;0.80;99.90
53208;DHT22;39093;52.788;6.940;2023-03-12T03:55:54;0.70;99.90
53208;DHT22;39093;52.788;6.940;2023-03-12T03:58:21;0.70;99.90
53208;DHT22;39093;52.788;6.940;2023-03-12T04:00:48;0.70;99.90
53208;DHT22;39093;52.788;6.940;2023-03-12T04:03:16;0.80;99.90
53208;DHT22;39093;52.788;6.940;2023-03-12T04:05:43;0.80;99.90
53208;DHT22;39093;52.788;6.940;2023-03-12T04:08:12;0.80;99.90
53208;DHT22;39093;52.788;6.940;2023-03-12T04:10:39;0.80;99.90
53208;DHT22;39093;52.788;6.940;2023-03-12T04:13:06;0.80;99.90
53208;DHT22;39093;52.788;6.940;2023-03-12T04:15:33;1.30;99.90
53208;DHT22;39093;52.788;6.940;2023-03-12T04:18:00;0.80;99.90
53208;DHT22;39093;52.788;6.940;2023-03-12T04:20:27;0.80;99.90
53208;DHT22;39093;52.788;6.940;2023-03-12T04:22:54;0.80;99.90
53208;DHT22;39093;52.788;6.940;2023-03-12T04:25:21;0.80;99.90
53208;DHT22;39093;52.788;6.940;2023-03-12T04:27:48;0.90;99.90
53208;DHT22;39093;52.788;6.940;2023-03-12T04:30:14;0.90;99.90
53208;DHT22;39093;52.788;6.940;2023-03-12T04:32:41;0.90;99.90
53208;DHT22;39093;52.788;6.940;2023-03-12T04:35:08;0.90;99.90
53208;DHT22;39093;52.788;6.940;2023-03-12T04:37:35;0.90;99.90
53208;DHT22;39093;52.788;6.940;2023-03-12T04:40:02;0.90;99.90
53208;DHT22;39093;52.788;6.940;2023-03-12T04:42:34;0.90;99.90
53208;DHT22;39093;52.788;6.940;2023-03-12T04:45:03;1.10;99.90
53208;DHT22;39093;52.788;6.940;2023-03-12T04:47:32;0.90;99.90
53208;DHT22;39093;52.788;6.940;2023-03-12T04:49:59;0.90;99.90
53208;DHT22;39093;52.788;6.940;2023-03-12T04:52:26;0.90;99.90
53208;DHT22;39093;52.788;6.940;2023-03-12T04:54:53;1.00;99.90
53208;DHT22;39093;52.788;6.940;2023-03-12T04:57:20;0.90;99.90
53208;DHT22;39093;52.788;6.940;2023-03-12T04:59:48;0.90;99.90
53208;DHT22;39093;52.788;6.940;2023-03-12T05:02:14;0.90;99.90
53208;DHT22;39093;52.788;6.940;2023-03-12T05:04:41;0.90;99.90
53208;DHT22;39093;52.788;6.940;2023-03-12T05:07:08;0.90;99.90
53208;DHT22;39093;52.788;6.940;2023-03-12T05:09:35;0.90;99.90
53208;DHT22;39093;52.788;6.940;2023-03-12T05:12:02;0.90;99.90
53208;DHT22;39093;52.788;6.940;2023-03-12T05:14:29;0.90;99.90
53208;DHT22;39093;52.788;6.940;2023-03-12T05:16:56;0.90;99.90
53208;DHT22;39093;52.788;6.940;2023-03-12T05:19:23;1.00;99.90
53208;DHT22;39093;52.788;6.940;2023-03-12T05:21:49;1.00;99.90
53208;DHT22;39093;52.788;6.940;2023-03-12T05:24:16;1.00;99.90
53208;DHT22;39093;52.788;6.940;2023-03-12T05:26:44;1.00;99.90
53208;DHT22;39093;52.788;6.940;2023-03-12T05:29:11;1.00;99.90
53208;DHT22;39093;52.788;6.940;2023-03-12T05:31:38;1.00;99.90
53208;DHT22;39093;52.788;6.940;2023-03-12T05:34:05;1.00;99.90
53208;DHT22;39093;52.788;6.940;2023-03-12T05:36:32;1.20;99.90
53208;DHT22;39093;52.788;6.940;2023-03-12T05:38:59;1.00;99.90
53208;DHT22;39093;52.788;6.940;2023-03-12T05:41:28;1.00;99.90
53208;DHT22;39093;52.788;6.940;2023-03-12T05:43:55;1.00;99.90
53208;DHT22;39093;52.788;6.940;2023-03-12T05:46:24;1.00;99.90
53208;DHT22;39093;52.788;6.940;2023-03-12T05:48:52;1.00;99.90
53208;DHT22;39093;52.788;6.940;2023-03-12T05:51:19;1.00;99.90
53208;DHT22;39093;52.788;6.940;2023-03-12T05:53:47;1.00;99.90
53208;DHT22;39093;52.788;6.940;2023-03-12T05:56:16;1.10;99.90
53208;DHT22;39093;52.788;6.940;2023-03-12T05:58:43;1.10;99.90
53208;DHT22;39093;52.788;6.940;2023-03-12T06:01:22;1.10;99.90
53208;DHT22;39093;52.788;6.940;2023-03-12T06:03:49;1.10;99.90
53208;DHT22;39093;52.788;6.940;2023-03-12T06:06:17;1.10;99.90
53208;DHT22;39093;52.788;6.940;2023-03-12T06:08:44;1.10;99.90
53208;DHT22;39093;52.788;6.940;2023-03-12T06:11:11;1.10;99.90
53208;DHT22;39093;52.788;6.940;2023-03-12T06:13:39;1.20;99.90
53208;DHT22;39093;52.788;6.940;2023-03-12T06:16:10;1.20;99.90
53208;DHT22;39093;52.788;6.940;2023-03-12T06:18:37;1.20;99.90
53208;DHT22;39093;52.788;6.940;2023-03-12T06:21:25;1.20;99.90
53208;DHT22;39093;52.788;6.940;2023-03-12T06:23:53;1.20;99.90
53208;DHT22;39093;52.788;6.940;2023-03-12T06:26:21;1.20;99.90
53208;DHT22;39093;52.788;6.940;2023-03-12T06:28:49;1.20;99.90
53208;DHT22;39093;52.788;6.940;2023-03-12T06:31:17;1.20;99.90
53208;DHT22;39093;52.788;6.940;2023-03-12T06:33:44;1.20;99.90
53208;DHT22;39093;52.788;6.940;2023-03-12T06:36:12;1.30;99.90
53208;DHT22;39093;52.788;6.940;2023-03-12T06:38:39;1.20;99.90
53208;DHT22;39093;52.788;6.940;2023-03-12T06:41:12;1.30;99.90
53208;DHT22;39093;52.788;6.940;2023-03-12T06:43:41;1.30;99.90
53208;DHT22;39093;52.788;6.940;2023-03-12T06:46:11;1.30;99.90
53208;DHT22;39093;52.788;6.940;2023-03-12T06:48:38;1.30;99.90
53208;DHT22;39093;52.788;6.940;2023-03-12T06:51:08;1.30;99.90
53208;DHT22;39093;52.788;6.940;2023-03-12T06:53:36;1.30;99.90
53208;DHT22;39093;52.788;6.940;2023-03-12T06:56:06;1.40;99.90
53208;DHT22;39093;52.788;6.940;2023-03-12T06:58:33;1.40;99.90
53208;DHT22;39093;52.788;6.940;2023-03-12T07:01:00;1.40;99.90
53208;DHT22;39093;52.788;6.940;2023-03-12T07:03:27;1.30;99.90
53208;DHT22;39093;52.788;6.940;2023-03-12T07:05:55;1.40;99.90
53208;DHT22;39093;52.788;6.940;2023-03-12T07:08:23;1.40;99.90
53208;DHT22;39093;52.788;6.940;2023-03-12T07:10:50;1.40;99.90
53208;DHT22;39093;52.788;6.940;2023-03-12T07:13:17;1.40;99.90
53208;DHT22;39093;52.788;6.940;2023-03-12T07:15:44;1.40;99.90
53208;DHT22;39093;52.788;6.940;2023-03-12T07:18:12;1.40;99.90
53208;DHT22;39093;52.788;6.940;2023-03-12T07:20:41;1.40;99.90
53208;DHT22;39093;52.788;6.940;2023-03-12T07:23:09;1.50;99.90
53208;DHT22;39093;52.788;6.940;2023-03-12T07:25:38;1.50;99.90
53208;DHT22;39093;52.788;6.940;2023-03-12T07:28:06;1.50;99.90
53208;DHT22;39093;52.788;6.940;2023-03-12T07:30:33;1.40;99.90
53208;DHT22;39093;52.788;6.940;2023-03-12T07:33:04;1.50;99.90
53208;DHT22;39093;52.788;6.940;2023-03-12T07:35:32;1.50;99.90
53208;DHT22;39093;52.788;6.940;2023-03-12T07:38:00;1.50;99.90
53208;DHT22;39093;52.788;6.940;2023-03-12T07:40:27;1.50;99.90
53208;DHT22;39093;52.788;6.940;2023-03-12T07:42:54;1.50;99.90
53208;DHT22;39093;52.788;6.940;2023-03-12T07:45:21;1.50;99.90
53208;DHT22;39093;52.788;6.940;2023-03-12T07:47:49;1.50;99.90
53208;DHT22;39093;52.788;6.940;2023-03-12T07:50:16;1.60;99.90
53208;DHT22;39093;52.788;6.940;2023-03-12T07:52:45;1.70;99.90
53208;DHT22;39093;52.788;6.940;2023-03-12T07:55:13;1.50;99.90
53208;DHT22;39093;52.788;6.940;2023-03-12T07:57:40;1.60;99.90
53208;DHT22;39093;52.788;6.940;2023-03-12T08:00:10;1.60;99.90
53208;DHT22;39093;52.788;6.940;2023-03-12T08:02:39;1.60;99.90
53208;DHT22;39093;52.788;6.940;2023-03-12T08:05:06;1.60;99.90
53208;DHT22;39093;52.788;6.940;2023-03-12T08:07:34;1.60;99.90
53208;DHT22;39093;52.788;6.940;2023-03-12T08:10:04;1.60;99.90
53208;DHT22;39093;52.788;6.940;2023-03-12T08:12:31;1.60;99.90
53208;DHT22;39093;52.788;6.940;2023-03-12T08:14:58;1.60;99.90
53208;DHT22;39093;52.788;6.940;2023-03-12T08:17:25;1.60;99.90
53208;DHT22;39093;52.788;6.940;2023-03-12T08:19:52;1.60;99.90
53208;DHT22;39093;52.788;6.940;2023-03-12T08:22:19;1.70;99.90
53208;DHT22;39093;52.788;6.940;2023-03-12T08:24:46;1.60;99.90
53208;DHT22;39093;52.788;6.940;2023-03-12T08:27:14;1.60;99.90
53208;DHT22;39093;52.788;6.940;2023-03-12T08:29:41;1.70;99.90
53208;DHT22;39093;52.788;6.940;2023-03-12T08:32:10;1.70;99.90
53208;DHT22;39093;52.788;6.940;2023-03-12T08:34:37;1.60;99.90
53208;DHT22;39093;52.788;6.940;2023-03-12T08:37:05;1.70;99.90
53208;DHT22;39093;52.788;6.940;2023-03-12T08:39:32;1.60;99.90
53208;DHT22;39093;52.788;6.940;2023-03-12T08:41:59;1.60;99.90
53208;DHT22;39093;52.788;6.940;2023-03-12T08:44:26;1.60;99.90
53208;DHT22;39093;52.788;6.940;2023-03-12T08:46:53;1.60;99.90
53208;DHT22;39093;52.788;6.940;2023-03-12T08:49:21;1.60;99.90
53208;DHT22;39093;52.788;6.940;2023-03-12T08:51:48;2.00;99.90
53208;DHT22;39093;52.788;6.940;2023-03-12T08:57:31;1.80;99.90
53208;DHT22;39093;52.788;6.940;2023-03-12T08:59:58;1.80;99.90
53208;DHT22;39093;52.788;6.940;2023-03-12T09:02:25;1.70;99.90
53208;DHT22;39093;52.788;6.940;2023-03-12T09:04:54;2.30;99.90
53208;DHT22;39093;52.788;6.940;2023-03-12T09:07:23;1.70;99.90
53208;DHT22;39093;52.788;6.940;2023-03-12T09:09:50;1.80;99.90
53208;DHT22;39093;52.788;6.940;2023-03-12T09:12:20;1.90;99.90
53208;DHT22;39093;52.788;6.940;2023-03-12T09:14:48;1.30;99.90
53208;DHT22;39093;52.788;6.940;2023-03-12T09:17:29;2.30;99.90
53208;DHT22;39093;52.788;6.940;2023-03-12T09:20:19;2.40;99.90
53208;DHT22;39093;52.788;6.940;2023-03-12T09:22:46;1.80;99.90
53208;DHT22;39093;52.788;6.940;2023-03-12T09:25:13;1.80;99.90
53208;DHT22;39093;52.788;6.940;2023-03-12T09:27:43;1.90;99.90
53208;DHT22;39093;52.788;6.940;2023-03-12T09:30:16;1.70;99.90
53208;DHT22;39093;52.788;6.940;2023-03-12T09:32:44;1.70;99.90
53208;DHT22;39093;52.788;6.940;2023-03-12T09:35:13;2.20;99.90
53208;DHT22;39093;52.788;6.940;2023-03-12T09:37:59;2.10;99.90
53208;DHT22;39093;52.788;6.940;2023-03-12T09:40:32;2.10;99.90
53208;DHT22;39093;52.788;6.940;2023-03-12T09:43:05;1.80;99.90
53208;DHT22;39093;52.788;6.940;2023-03-12T09:46:11;1.80;99.90
53208;DHT22;39093;52.788;6.940;2023-03-12T09:48:44;1.70;99.90
53208;DHT22;39093;52.788;6.940;2023-03-12T09:51:19;1.80;99.90
53208;DHT22;39093;52.788;6.940;2023-03-12T09:53:58;1.80;99.90
53208;DHT22;39093;52.788;6.940;2023-03-12T09:56:26;2.00;99.90
53208;DHT22;39093;52.788;6.940;2023-03-12T09:58:53;1.80;99.90
53208;DHT22;39093;52.788;6.940;2023-03-12T10:01:47;1.80;99.90
53208;DHT22;39093;52.788;6.940;2023-03-12T10:07:39;1.80;99.90
53208;DHT22;39093;52.788;6.940;2023-03-12T10:18:53;1.70;99.90
53208;DHT22;39093;52.788;6.940;2023-03-12T10:26:48;1.80;99.90
53208;DHT22;39093;52.788;6.940;2023-03-12T10:29:19;1.90;99.90
53208;DHT22;39093;52.788;6.940;2023-03-12T10:32:01;2.00;99.90
53208;DHT22;39093;52.788;6.940;2023-03-12T10:34:31;2.00;99.90
53208;DHT22;39093;52.788;6.940;2023-03-12T10:37:24;1.90;99.90
53208;DHT22;39093;52.788;6.940;2023-03-12T10:39:53;2.00;99.90
53208;DHT22;39093;52.788;6.940;2023-03-12T10:42:28;2.00;99.90
53208;DHT22;39093;52.788;6.940;2023-03-12T10:45:09;2.00;99.90
53208;DHT22;39093;52.788;6.940;2023-03-12T10:47:40;2.00;99.90
53208;DHT22;39093;52.788;6.940;2023-03-12T10:50:27;2.00;99.90
53208;DHT22;39093;52.788;6.940;2023-03-12T10:53:31;2.00;99.90
53208;DHT22;39093;52.788;6.940;2023-03-12T10:56:01;2.10;99.90
53208;DHT22;39093;52.788;6.940;2023-03-12T11:01:11;2.20;99.90
53208;DHT22;39093;52.788;6.940;2023-03-12T11:03:42;2.20;99.90
53208;DHT22;39093;52.788;6.940;2023-03-12T11:06:20;2.20;99.90
53208;DHT22;39093;52.788;6.940;2023-03-12T11:11:42;2.30;99.90
53208;DHT22;39093;52.788;6.940;2023-03-12T11:14:22;2.30;99.90
53208;DHT22;39093;52.788;6.940;2023-03-12T11:16:51;2.30;99.90
53208;DHT22;39093;52.788;6.940;2023-03-12T11:19:30;2.40;99.90
53208;DHT22;39093;52.788;6.940;2023-03-12T11:22:00;2.40;99.90
53208;DHT22;39093;52.788;6.940;2023-03-12T11:24:28;2.40;99.90
53208;DHT22;39093;52.788;6.940;2023-03-12T11:27:05;2.40;99.90
53208;DHT22;39093;52.788;6.940;2023-03-12T11:29:44;2.60;99.90
53208;DHT22;39093;52.788;6.940;2023-03-12T11:32:32;2.70;99.90
53208;DHT22;39093;52.788;6.940;2023-03-12T11:35:01;2.60;99.90
53208;DHT22;39093;52.788;6.940;2023-03-12T11:43:06;2.80;99.90
53208;DHT22;39093;52.788;6.940;2023-03-12T11:45:52;2.80;99.90
53208;DHT22;39093;52.788;6.940;2023-03-12T11:48:44;2.80;99.90
53208;DHT22;39093;52.788;6.940;2023-03-12T11:56:59;3.00;99.90
53208;DHT22;39093;52.788;6.940;2023-03-12T12:00:14;3.00;99.90
53208;DHT22;39093;52.788;6.940;2023-03-12T12:02:53;3.00;99.90
53208;DHT22;39093;52.788;6.940;2023-03-12T12:17:43;3.40;99.90
53208;DHT22;39093;52.788;6.940;2023-03-12T12:23:21;3.60;99.90
53208;DHT22;39093;52.788;6.940;2023-03-12T12:33:54;4.00;99.90
53208;DHT22;39093;52.788;6.940;2023-03-12T12:36:30;4.10;99.90
53208;DHT22;39093;52.788;6.940;2023-03-12T12:39:12;4.20;99.90
53208;DHT22;39093;52.788;6.940;2023-03-12T12:41:44;4.30;99.90
53208;DHT22;39093;52.788;6.940;2023-03-12T12:44:27;4.30;99.90
53208;DHT22;39093;52.788;6.940;2023-03-12T12:46:59;4.50;99.90
53208;DHT22;39093;52.788;6.940;2023-03-12T12:49:47;4.60;99.90
53208;DHT22;39093;52.788;6.940;2023-03-12T12:52:19;4.70;99.90
53208;DHT22;39093;52.788;6.940;2023-03-12T12:57:38;4.70;99.90
53208;DHT22;39093;52.788;6.940;2023-03-12T13:03:19;5.00;99.90
53208;DHT22;39093;52.788;6.940;2023-03-12T13:05:54;5.30;99.90
53208;DHT22;39093;52.788;6.940;2023-03-12T13:16:34;5.40;99.90
53208;DHT22;39093;52.788;6.940;2023-03-12T13:21:39;5.60;99.90
53208;DHT22;39093;52.788;6.940;2023-03-12T13:27:36;5.70;99.90
53208;DHT22;39093;52.788;6.940;2023-03-12T13:35:35;5.80;99.90
53208;DHT22;39093;52.788;6.940;2023-03-12T13:38:09;5.90;99.90
53208;DHT22;39093;52.788;6.940;2023-03-12T13:40:52;5.90;99.90
53208;DHT22;39093;52.788;6.940;2023-03-12T13:46:12;6.00;99.90
53208;DHT22;39093;52.788;6.940;2023-03-12T13:48:47;6.10;99.90
53208;DHT22;39093;52.788;6.940;2023-03-12T13:51:20;6.50;99.90
53208;DHT22;39093;52.788;6.940;2023-03-12T13:53:54;6.20;99.90
53208;DHT22;39093;52.788;6.940;2023-03-12T13:56:30;6.20;99.90
53208;DHT22;39093;52.788;6.940;2023-03-12T13:59:05;6.30;99.90
53208;DHT22;39093;52.788;6.940;2023-03-12T14:01:39;6.30;99.90
53208;DHT22;39093;52.788;6.940;2023-03-12T14:04:21;6.40;99.90
53208;DHT22;39093;52.788;6.940;2023-03-12T14:12:22;6.50;99.90
53208;DHT22;39093;52.788;6.940;2023-03-12T14:18:22;6.70;99.90
53208;DHT22;39093;52.788;6.940;2023-03-12T14:20:58;6.80;99.90
53208;DHT22;39093;52.788;6.940;2023-03-12T14:23:30;7.00;99.90
53208;DHT22;39093;52.788;6.940;2023-03-12T14:26:01;7.10;99.90
53208;DHT22;39093;52.788;6.940;2023-03-12T14:28:31;7.20;99.90
53208;DHT22;39093;52.788;6.940;2023-03-12T14:31:06;7.10;99.90
53208;DHT22;39093;52.788;6.940;2023-03-12T14:33:55;7.10;99.90
53208;DHT22;39093;52.788;6.940;2023-03-12T14:36:26;7.10;99.90
53208;DHT22;39093;52.788;6.940;2023-03-12T14:41:54;7.30;99.90
53208;DHT22;39093;52.788;6.940;2023-03-12T14:44:26;7.40;99.90
53208;DHT22;39093;52.788;6.940;2023-03-12T14:47:04;7.40;99.90
53208;DHT22;39093;52.788;6.940;2023-03-12T14:49:40;7.40;99.90
53208;DHT22;39093;52.788;6.940;2023-03-12T14:52:14;7.50;99.90
53208;DHT22;39093;52.788;6.940;2023-03-12T14:55:06;7.50;99.90
53208;DHT22;39093;52.788;6.940;2023-03-12T14:57:33;7.50;99.90
53208;DHT22;39093;52.788;6.940;2023-03-12T15:00:00;7.60;99.90
53208;DHT22;39093;52.788;6.940;2023-03-12T15:02:29;7.60;99.90
53208;DHT22;39093;52.788;6.940;2023-03-12T15:04:59;7.50;99.90
53208;DHT22;39093;52.788;6.940;2023-03-12T15:07:33;7.50;99.90
53208;DHT22;39093;52.788;6.940;2023-03-12T15:10:03;7.50;99.90
53208;DHT22;39093;52.788;6.940;2023-03-12T15:12:36;7.50;99.90
53208;DHT22;39093;52.788;6.940;2023-03-12T15:15:09;7.50;99.90
53208;DHT22;39093;52.788;6.940;2023-03-12T15:17:37;7.60;99.90
53208;DHT22;39093;52.788;6.940;2023-03-12T15:20:05;7.60;99.90
53208;DHT22;39093;52.788;6.940;2023-03-12T15:22:35;7.60;99.90
53208;DHT22;39093;52.788;6.940;2023-03-12T15:25:23;7.60;99.90
53208;DHT22;39093;52.788;6.940;2023-03-12T15:31:15;7.60;99.90
53208;DHT22;39093;52.788;6.940;2023-03-12T15:34:00;7.70;99.90
53208;DHT22;39093;52.788;6.940;2023-03-12T15:36:29;7.70;99.90
53208;DHT22;39093;52.788;6.940;2023-03-12T15:39:03;7.70;99.90
53208;DHT22;39093;52.788;6.940;2023-03-12T15:42:00;7.70;99.90
53208;DHT22;39093;52.788;6.940;2023-03-12T15:44:42;7.70;99.90
53208;DHT22;39093;52.788;6.940;2023-03-12T15:47:13;7.80;99.90
53208;DHT22;39093;52.788;6.940;2023-03-12T15:49:41;7.80;99.90
53208;DHT22;39093;52.788;6.940;2023-03-12T15:56:17;7.80;99.90
53208;DHT22;39093;52.788;6.940;2023-03-12T15:58:46;7.80;99.90
53208;DHT22;39093;52.788;6.940;2023-03-12T16:01:24;7.90;99.90
53208;DHT22;39093;52.788;6.940;2023-03-12T16:03:54;7.80;99.90
53208;DHT22;39093;52.788;6.940;2023-03-12T16:06:24;7.80;99.90
53208;DHT22;39093;52.788;6.940;2023-03-12T16:09:00;7.80;99.90
53208;DHT22;39093;52.788;6.940;2023-03-12T16:11:31;7.80;99.90
53208;DHT22;39093;52.788;6.940;2023-03-12T16:14:05;7.80;99.90
53208;DHT22;39093;52.788;6.940;2023-03-12T16:16:53;7.80;99.90
53208;DHT22;39093;52.788;6.940;2023-03-12T16:19:38;7.80;99.90
53208;DHT22;39093;52.788;6.940;2023-03-12T16:22:09;7.80;99.90
53208;DHT22;39093;52.788;6.940;2023-03-12T16:24:38;7.80;99.90
53208;DHT22;39093;52.788;6.940;2023-03-12T16:27:12;7.90;99.90
53208;DHT22;39093;52.788;6.940;2023-03-12T16:29:46;8.00;99.90
53208;DHT22;39093;52.788;6.940;2023-03-12T16:32:14;7.90;99.90
53208;DHT22;39093;52.788;6.940;2023-03-12T16:34:42;7.90;99.90
53208;DHT22;39093;52.788;6.940;2023-03-12T16:37:14;7.90;99.90
53208;DHT22;39093;52.788;6.940;2023-03-12T16:39:56;7.80;99.90
53208;DHT22;39093;52.788;6.940;2023-03-12T16:42:23;7.80;99.90
53208;DHT22;39093;52.788;6.940;2023-03-12T16:44:51;7.90;99.90
53208;DHT22;39093;52.788;6.940;2023-03-12T16:47:18;7.80;99.90
53208;DHT22;39093;52.788;6.940;2023-03-12T16:49:51;7.80;99.90
53208;DHT22;39093;52.788;6.940;2023-03-12T16:52:21;7.80;99.90
53208;DHT22;39093;52.788;6.940;2023-03-12T16:55:02;7.80;99.90
53208;DHT22;39093;52.788;6.940;2023-03-12T16:57:32;7.80;99.90
53208;DHT22;39093;52.788;6.940;2023-03-12T17:00:21;7.90;99.90
53208;DHT22;39093;52.788;6.940;2023-03-12T17:02:49;7.90;99.90
53208;DHT22;39093;52.788;6.940;2023-03-12T17:05:18;7.80;99.90
53208;DHT22;39093;52.788;6.940;2023-03-12T17:07:45;7.90;99.90
53208;DHT22;39093;52.788;6.940;2023-03-12T17:10:14;7.90;99.90
53208;DHT22;39093;52.788;6.940;2023-03-12T17:12:42;7.80;99.90
53208;DHT22;39093;52.788;6.940;2023-03-12T17:15:20;8.00;99.90
53208;DHT22;39093;52.788;6.940;2023-03-12T17:17:55;7.80;99.90
53208;DHT22;39093;52.788;6.940;2023-03-12T17:20:25;7.80;99.90
53208;DHT22;39093;52.788;6.940;2023-03-12T17:22:51;7.80;99.90
53208;DHT22;39093;52.788;6.940;2023-03-12T17:25:48;7.80;99.90
53208;DHT22;39093;52.788;6.940;2023-03-12T17:28:15;7.80;99.90
53208;DHT22;39093;52.788;6.940;2023-03-12T17:30:42;7.80;99.90
53208;DHT22;39093;52.788;6.940;2023-03-12T17:33:14;7.80;99.90
53208;DHT22;39093;52.788;6.940;2023-03-12T17:36:00;7.80;99.90
53208;DHT22;39093;52.788;6.940;2023-03-12T17:38:29;7.80;99.90
53208;DHT22;39093;52.788;6.940;2023-03-12T17:41:02;7.80;99.90
53208;DHT22;39093;52.788;6.940;2023-03-12T17:43:37;7.80;99.90
53208;DHT22;39093;52.788;6.940;2023-03-12T17:46:06;7.80;99.90
53208;DHT22;39093;52.788;6.940;2023-03-12T17:48:34;7.80;99.90
